sensor_id;sensor_type;location;lat;lon;timestamp;P1;durP1;ratioP1;P2;durP2;ratioP2
50651;SDS011;61429;52.086;5.240;2022-08-21T00:01:27;6.5;;;5.7;;
50651;SDS011;61429;52.086;5.240;2022-08-21T00:03:07;6.9;;;5.7;;
50651;SDS011;61429;52.086;5.240;2022-08-21T00:04:45;7.5;;;5.5;;
50651;SDS011;61429;52.086;5.240;2022-08-21T00:08:02;8.4;;;5.6;;
50651;SDS011;61429;52.086;5.240;2022-08-21T00:09:39;7.5;;;5.6;;
50651;SDS011;61429;52.086;5.240;2022-08-21T00:11:16;7.0;;;6.1;;
50651;SDS011;61429;52.086;5.240;2022-08-21T00:14:31;8.2;;;5.7;;
50651;SDS011;61429;52.086;5.240;2022-08-21T00:16:09;8.0;;;5.5;;
50651;SDS011;61429;52.086;5.240;2022-08-21T00:17:46;8.2;;;5.4;;
50651;SDS011;61429;52.086;5.240;2022-08-21T00:19:24;5.9;;;5.3;;
50651;SDS011;61429;52.086;5.240;2022-08-21T00:22:39;6.4;;;5.4;;
50651;SDS011;61429;52.086;5.240;2022-08-21T00:24:17;6.9;;;5.3;;
50651;SDS011;61429;52.086;5.240;2022-08-21T00:25:54;7.8;;;6.0;;
50651;SDS011;61429;52.086;5.240;2022-08-21T00:29:07;6.6;;;5.4;;
50651;SDS011;61429;52.086;5.240;2022-08-21T00:30:44;6.8;;;5.5;;
50651;SDS011;61429;52.086;5.240;2022-08-21T00:32:21;5.7;;;4.8;;
50651;SDS011;61429;52.086;5.240;2022-08-21T00:35:37;7.8;;;5.5;;
50651;SDS011;61429;52.086;5.240;2022-08-21T00:37:17;7.3;;;5.3;;
50651;SDS011;61429;52.086;5.240;2022-08-21T00:38:54;5.4;;;4.61;;
50651;SDS011;61429;52.086;5.240;2022-08-21T00:40:32;6.8;;;5.3;;
50651;SDS011;61429;52.086;5.240;2022-08-21T00:43:54;7.1;;;5.2;;
50651;SDS011;61429;52.086;5.240;2022-08-21T00:45:31;5.2;;;4.7;;
50651;SDS011;61429;52.086;5.240;2022-08-21T00:47:09;6.3;;;5.3;;
50651;SDS011;61429;52.086;5.240;2022-08-21T00:48:46;7.7;;;5.0;;
50651;SDS011;61429;52.086;5.240;2022-08-21T00:52:05;5.8;;;4.8;;
50651;SDS011;61429;52.086;5.240;2022-08-21T00:53:46;5.5;;;5.0;;
50651;SDS011;61429;52.086;5.240;2022-08-21T00:55:23;5.6;;;5.0;;
50651;SDS011;61429;52.086;5.240;2022-08-21T00:58:46;6.6;;;5.0;;
50651;SDS011;61429;52.086;5.240;2022-08-21T01:00:27;6.6;;;5.2;;
50651;SDS011;61429;52.086;5.240;2022-08-21T01:02:06;6.6;;;5.0;;
50651;SDS011;61429;52.086;5.240;2022-08-21T01:03:45;6.5;;;4.91;;
50651;SDS011;61429;52.086;5.240;2022-08-21T01:07:00;6.3;;;5.2;;
50651;SDS011;61429;52.086;5.240;2022-08-21T01:08:37;6.7;;;5.5;;
50651;SDS011;61429;52.086;5.240;2022-08-21T01:10:15;7.0;;;5.3;;
50651;SDS011;61429;52.086;5.240;2022-08-21T01:11:53;6.2;;;5.6;;
50651;SDS011;61429;52.086;5.240;2022-08-21T01:15:10;5.8;;;5.2;;
50651;SDS011;61429;52.086;5.240;2022-08-21T01:16:51;6.4;;;5.11;;
50651;SDS011;61429;52.086;5.240;2022-08-21T01:18:30;6.2;;;5.4;;
50651;SDS011;61429;52.086;5.240;2022-08-21T01:20:08;6.5;;;5.3;;
50651;SDS011;61429;52.086;5.240;2022-08-21T01:23:25;7.7;;;5.5;;
50651;SDS011;61429;52.086;5.240;2022-08-21T01:25:02;6.4;;;5.0;;
50651;SDS011;61429;52.086;5.240;2022-08-21T01:26:41;6.6;;;5.8;;
50651;SDS011;61429;52.086;5.240;2022-08-21T01:30:01;7.0;;;5.9;;
50651;SDS011;61429;52.086;5.240;2022-08-21T01:31:45;8.71;;;6.2;;
50651;SDS011;61429;52.086;5.240;2022-08-21T01:33:24;8.9;;;6.4;;
50651;SDS011;61429;52.086;5.240;2022-08-21T01:35:01;6.5;;;5.5;;
50651;SDS011;61429;52.086;5.240;2022-08-21T01:38:16;6.4;;;5.7;;
50651;SDS011;61429;52.086;5.240;2022-08-21T01:39:53;7.6;;;5.5;;
50651;SDS011;61429;52.086;5.240;2022-08-21T01:41:29;6.6;;;5.4;;
50651;SDS011;61429;52.086;5.240;2022-08-21T01:43:06;6.6;;;5.6;;
50651;SDS011;61429;52.086;5.240;2022-08-21T01:46:20;5.7;;;5.11;;
50651;SDS011;61429;52.086;5.240;2022-08-21T01:47:56;7.6;;;5.4;;
50651;SDS011;61429;52.086;5.240;2022-08-21T01:49:32;6.0;;;5.2;;
50651;SDS011;61429;52.086;5.240;2022-08-21T01:52:48;7.8;;;5.8;;
50651;SDS011;61429;52.086;5.240;2022-08-21T01:54:25;7.5;;;5.8;;
50651;SDS011;61429;52.086;5.240;2022-08-21T01:56:03;7.0;;;5.9;;
50651;SDS011;61429;52.086;5.240;2022-08-21T01:57:42;7.0;;;5.9;;
50651;SDS011;61429;52.086;5.240;2022-08-21T02:00:58;9.81;;;5.8;;
50651;SDS011;61429;52.086;5.240;2022-08-21T02:02:35;8.31;;;6.0;;
50651;SDS011;61429;52.086;5.240;2022-08-21T02:04:11;7.2;;;5.7;;
50651;SDS011;61429;52.086;5.240;2022-08-21T02:07:24;7.5;;;5.6;;
50651;SDS011;61429;52.086;5.240;2022-08-21T02:09:01;6.8;;;5.8;;
50651;SDS011;61429;52.086;5.240;2022-08-21T02:10:41;7.7;;;5.8;;
50651;SDS011;61429;52.086;5.240;2022-08-21T02:13:54;7.7;;;5.7;;
50651;SDS011;61429;52.086;5.240;2022-08-21T02:15:31;7.6;;;5.4;;
50651;SDS011;61429;52.086;5.240;2022-08-21T02:17:07;6.9;;;5.7;;
50651;SDS011;61429;52.086;5.240;2022-08-21T02:18:43;6.8;;;6.1;;
50651;SDS011;61429;52.086;5.240;2022-08-21T02:22:03;6.6;;;5.8;;
50651;SDS011;61429;52.086;5.240;2022-08-21T02:23:40;7.2;;;6.2;;
50651;SDS011;61429;52.086;5.240;2022-08-21T02:25:16;6.0;;;5.5;;
50651;SDS011;61429;52.086;5.240;2022-08-21T02:28:30;6.8;;;6.0;;
50651;SDS011;61429;52.086;5.240;2022-08-21T02:30:08;8.0;;;6.5;;
50651;SDS011;61429;52.086;5.240;2022-08-21T02:31:47;7.4;;;6.3;;
50651;SDS011;61429;52.086;5.240;2022-08-21T02:33:24;8.2;;;6.3;;
50651;SDS011;61429;52.086;5.240;2022-08-21T02:36:39;7.6;;;6.4;;
50651;SDS011;61429;52.086;5.240;2022-08-21T02:38:17;8.4;;;6.3;;
50651;SDS011;61429;52.086;5.240;2022-08-21T02:43:13;10.6;;;6.8;;
50651;SDS011;61429;52.086;5.240;2022-08-21T02:44:51;7.8;;;5.8;;
50651;SDS011;61429;52.086;5.240;2022-08-21T02:46:28;7.1;;;6.0;;
50651;SDS011;61429;52.086;5.240;2022-08-21T02:48:05;7.1;;;6.0;;
50651;SDS011;61429;52.086;5.240;2022-08-21T02:51:22;6.6;;;5.9;;
50651;SDS011;61429;52.086;5.240;2022-08-21T02:52:59;9.6;;;6.2;;
50651;SDS011;61429;52.086;5.240;2022-08-21T02:54:36;7.1;;;6.1;;
50651;SDS011;61429;52.086;5.240;2022-08-21T02:57:56;8.5;;;6.0;;
50651;SDS011;61429;52.086;5.240;2022-08-21T02:59:34;7.7;;;6.2;;
50651;SDS011;61429;52.086;5.240;2022-08-21T03:01:11;9.5;;;6.3;;
50651;SDS011;61429;52.086;5.240;2022-08-21T03:02:48;7.1;;;5.7;;
50651;SDS011;61429;52.086;5.240;2022-08-21T03:06:03;8.9;;;6.5;;
50651;SDS011;61429;52.086;5.240;2022-08-21T03:07:41;6.7;;;5.9;;
50651;SDS011;61429;52.086;5.240;2022-08-21T03:09:19;7.4;;;6.1;;
50651;SDS011;61429;52.086;5.240;2022-08-21T03:10:55;8.5;;;6.2;;
50651;SDS011;61429;52.086;5.240;2022-08-21T03:14:09;7.5;;;6.3;;
50651;SDS011;61429;52.086;5.240;2022-08-21T03:15:45;8.5;;;6.8;;
50651;SDS011;61429;52.086;5.240;2022-08-21T03:17:23;10.6;;;6.9;;
50651;SDS011;61429;52.086;5.240;2022-08-21T03:20:38;9.0;;;6.8;;
50651;SDS011;61429;52.086;5.240;2022-08-21T03:22:17;8.9;;;6.6;;
50651;SDS011;61429;52.086;5.240;2022-08-21T03:23:54;8.2;;;6.4;;
50651;SDS011;61429;52.086;5.240;2022-08-21T03:27:12;9.0;;;6.4;;
50651;SDS011;61429;52.086;5.240;2022-08-21T03:28:50;9.21;;;6.7;;
50651;SDS011;61429;52.086;5.240;2022-08-21T03:30:27;8.9;;;6.4;;
50651;SDS011;61429;52.086;5.240;2022-08-21T03:32:04;8.2;;;6.6;;
50651;SDS011;61429;52.086;5.240;2022-08-21T03:35:18;8.81;;;5.9;;
50651;SDS011;61429;52.086;5.240;2022-08-21T03:36:56;7.2;;;5.9;;
50651;SDS011;61429;52.086;5.240;2022-08-21T03:38:33;6.9;;;5.8;;
50651;SDS011;61429;52.086;5.240;2022-08-21T03:41:52;7.9;;;6.0;;
50651;SDS011;61429;52.086;5.240;2022-08-21T03:43:29;8.6;;;6.0;;
50651;SDS011;61429;52.086;5.240;2022-08-21T03:45:07;7.1;;;5.9;;
50651;SDS011;61429;52.086;5.240;2022-08-21T03:46:45;9.31;;;6.0;;
50651;SDS011;61429;52.086;5.240;2022-08-21T03:49:59;6.5;;;5.7;;
50651;SDS011;61429;52.086;5.240;2022-08-21T03:51:37;7.9;;;6.0;;
50651;SDS011;61429;52.086;5.240;2022-08-21T03:53:13;6.9;;;6.0;;
50651;SDS011;61429;52.086;5.240;2022-08-21T03:54:52;6.5;;;5.7;;
50651;SDS011;61429;52.086;5.240;2022-08-21T03:58:06;7.0;;;5.9;;
50651;SDS011;61429;52.086;5.240;2022-08-21T03:59:43;6.2;;;5.6;;
50651;SDS011;61429;52.086;5.240;2022-08-21T04:01:20;6.9;;;5.7;;
50651;SDS011;61429;52.086;5.240;2022-08-21T04:04:32;7.5;;;5.8;;
50651;SDS011;61429;52.086;5.240;2022-08-21T04:06:10;7.5;;;5.6;;
50651;SDS011;61429;52.086;5.240;2022-08-21T04:07:47;6.0;;;4.91;;
50651;SDS011;61429;52.086;5.240;2022-08-21T04:11:02;7.2;;;5.5;;
50651;SDS011;61429;52.086;5.240;2022-08-21T04:12:39;7.7;;;5.8;;
50651;SDS011;61429;52.086;5.240;2022-08-21T04:14:15;7.4;;;5.9;;
50651;SDS011;61429;52.086;5.240;2022-08-21T04:15:54;8.4;;;6.0;;
50651;SDS011;61429;52.086;5.240;2022-08-21T04:19:07;6.1;;;5.5;;
50651;SDS011;61429;52.086;5.240;2022-08-21T04:20:44;7.8;;;6.3;;
50651;SDS011;61429;52.086;5.240;2022-08-21T04:22:24;7.7;;;6.1;;
50651;SDS011;61429;52.086;5.240;2022-08-21T04:25:36;6.6;;;5.9;;
50651;SDS011;61429;52.086;5.240;2022-08-21T04:27:13;8.1;;;6.5;;
50651;SDS011;61429;52.086;5.240;2022-08-21T04:28:49;9.4;;;6.6;;
50651;SDS011;61429;52.086;5.240;2022-08-21T04:30:26;7.9;;;6.3;;
50651;SDS011;61429;52.086;5.240;2022-08-21T04:33:40;7.5;;;6.0;;
50651;SDS011;61429;52.086;5.240;2022-08-21T04:35:17;7.8;;;6.3;;
50651;SDS011;61429;52.086;5.240;2022-08-21T04:36:56;8.1;;;6.3;;
50651;SDS011;61429;52.086;5.240;2022-08-21T04:40:09;7.9;;;6.8;;
50651;SDS011;61429;52.086;5.240;2022-08-21T04:41:49;10.3;;;6.8;;
50651;SDS011;61429;52.086;5.240;2022-08-21T04:43:25;8.31;;;6.7;;
50651;SDS011;61429;52.086;5.240;2022-08-21T04:46:38;9.4;;;7.0;;
50651;SDS011;61429;52.086;5.240;2022-08-21T04:48:16;10.21;;;7.4;;
50651;SDS011;61429;52.086;5.240;2022-08-21T04:49:55;8.2;;;7.3;;
50651;SDS011;61429;52.086;5.240;2022-08-21T04:51:33;11.8;;;7.8;;
50651;SDS011;61429;52.086;5.240;2022-08-21T04:54:54;11.1;;;8.0;;
50651;SDS011;61429;52.086;5.240;2022-08-21T04:56:31;10.21;;;7.9;;
50651;SDS011;61429;52.086;5.240;2022-08-21T04:58:18;10.7;;;8.31;;
50651;SDS011;61429;52.086;5.240;2022-08-21T04:59:56;10.21;;;7.8;;
50651;SDS011;61429;52.086;5.240;2022-08-21T05:03:14;9.6;;;7.7;;
50651;SDS011;61429;52.086;5.240;2022-08-21T05:04:53;10.4;;;7.5;;
50651;SDS011;61429;52.086;5.240;2022-08-21T05:06:33;11.4;;;8.1;;
50651;SDS011;61429;52.086;5.240;2022-08-21T05:08:14;10.0;;;7.6;;
50651;SDS011;61429;52.086;5.240;2022-08-21T05:11:32;10.7;;;8.5;;
50651;SDS011;61429;52.086;5.240;2022-08-21T05:13:10;10.21;;;7.8;;
50651;SDS011;61429;52.086;5.240;2022-08-21T05:14:48;11.5;;;7.8;;
50651;SDS011;61429;52.086;5.240;2022-08-21T05:18:03;8.9;;;7.1;;
50651;SDS011;61429;52.086;5.240;2022-08-21T05:19:40;12.8;;;8.0;;
50651;SDS011;61429;52.086;5.240;2022-08-21T05:21:17;11.2;;;8.1;;
50651;SDS011;61429;52.086;5.240;2022-08-21T05:22:53;9.6;;;7.5;;
50651;SDS011;61429;52.086;5.240;2022-08-21T05:26:07;8.31;;;7.4;;
50651;SDS011;61429;52.086;5.240;2022-08-21T05:27:43;10.4;;;7.7;;
50651;SDS011;61429;52.086;5.240;2022-08-21T05:29:20;10.8;;;8.6;;
50651;SDS011;61429;52.086;5.240;2022-08-21T05:32:34;8.9;;;7.8;;
50651;SDS011;61429;52.086;5.240;2022-08-21T05:34:12;10.21;;;8.1;;
50651;SDS011;61429;52.086;5.240;2022-08-21T05:35:49;10.7;;;7.5;;
50651;SDS011;61429;52.086;5.240;2022-08-21T05:37:27;10.8;;;7.3;;
50651;SDS011;61429;52.086;5.240;2022-08-21T05:40:41;9.6;;;7.8;;
50651;SDS011;61429;52.086;5.240;2022-08-21T05:42:17;12.6;;;8.31;;
50651;SDS011;61429;52.086;5.240;2022-08-21T05:43:53;11.3;;;7.6;;
50651;SDS011;61429;52.086;5.240;2022-08-21T05:47:09;9.1;;;7.3;;
50651;SDS011;61429;52.086;5.240;2022-08-21T05:48:46;12.1;;;8.0;;
50651;SDS011;61429;52.086;5.240;2022-08-21T05:50:23;12.4;;;8.0;;
50651;SDS011;61429;52.086;5.240;2022-08-21T05:52:00;12.8;;;8.2;;
50651;SDS011;61429;52.086;5.240;2022-08-21T05:55:15;9.21;;;7.3;;
50651;SDS011;61429;52.086;5.240;2022-08-21T05:56:51;9.71;;;7.8;;
50651;SDS011;61429;52.086;5.240;2022-08-21T05:58:27;11.2;;;7.8;;
50651;SDS011;61429;52.086;5.240;2022-08-21T06:01:41;10.7;;;8.1;;
50651;SDS011;61429;52.086;5.240;2022-08-21T06:03:19;8.9;;;7.7;;
50651;SDS011;61429;52.086;5.240;2022-08-21T06:05:00;10.5;;;7.4;;
50651;SDS011;61429;52.086;5.240;2022-08-21T06:08:14;10.1;;;7.6;;
50651;SDS011;61429;52.086;5.240;2022-08-21T06:09:51;11.2;;;7.5;;
50651;SDS011;61429;52.086;5.240;2022-08-21T06:11:27;10.21;;;7.1;;
50651;SDS011;61429;52.086;5.240;2022-08-21T06:13:04;9.31;;;7.6;;
50651;SDS011;61429;52.086;5.240;2022-08-21T06:16:18;11.5;;;7.2;;
50651;SDS011;61429;52.086;5.240;2022-08-21T06:17:55;11.3;;;7.5;;
50651;SDS011;61429;52.086;5.240;2022-08-21T06:19:32;9.9;;;7.5;;
50651;SDS011;61429;52.086;5.240;2022-08-21T06:22:46;10.5;;;7.9;;
50651;SDS011;61429;52.086;5.240;2022-08-21T06:24:22;10.0;;;7.2;;
50651;SDS011;61429;52.086;5.240;2022-08-21T06:25:59;13.7;;;7.3;;
50651;SDS011;61429;52.086;5.240;2022-08-21T06:27:37;13.8;;;7.7;;
50651;SDS011;61429;52.086;5.240;2022-08-21T06:30:53;12.4;;;7.4;;
50651;SDS011;61429;52.086;5.240;2022-08-21T06:32:30;10.3;;;7.0;;
50651;SDS011;61429;52.086;5.240;2022-08-21T06:34:08;12.7;;;7.6;;
50651;SDS011;61429;52.086;5.240;2022-08-21T06:37:22;8.9;;;7.0;;
50651;SDS011;61429;52.086;5.240;2022-08-21T06:38:58;10.9;;;7.0;;
50651;SDS011;61429;52.086;5.240;2022-08-21T06:40:34;11.7;;;6.8;;
50651;SDS011;61429;52.086;5.240;2022-08-21T06:43:51;11.2;;;7.3;;
50651;SDS011;61429;52.086;5.240;2022-08-21T06:45:28;12.7;;;7.5;;
50651;SDS011;61429;52.086;5.240;2022-08-21T06:47:04;12.7;;;7.5;;
50651;SDS011;61429;52.086;5.240;2022-08-21T06:48:41;11.3;;;6.8;;
50651;SDS011;61429;52.086;5.240;2022-08-21T06:51:54;12.5;;;6.5;;
50651;SDS011;61429;52.086;5.240;2022-08-21T06:53:32;11.1;;;6.5;;
50651;SDS011;61429;52.086;5.240;2022-08-21T06:55:10;10.7;;;6.9;;
50651;SDS011;61429;52.086;5.240;2022-08-21T06:58:26;12.0;;;7.0;;
50651;SDS011;61429;52.086;5.240;2022-08-21T07:01:44;11.6;;;6.9;;
50651;SDS011;61429;52.086;5.240;2022-08-21T07:03:22;11.0;;;6.4;;
50651;SDS011;61429;52.086;5.240;2022-08-21T07:06:38;12.1;;;6.6;;
50651;SDS011;61429;52.086;5.240;2022-08-21T07:08:15;13.4;;;6.4;;
50651;SDS011;61429;52.086;5.240;2022-08-21T07:09:52;11.9;;;6.4;;
50651;SDS011;61429;52.086;5.240;2022-08-21T07:13:05;12.3;;;6.2;;
50651;SDS011;61429;52.086;5.240;2022-08-21T07:14:42;11.8;;;6.1;;
50651;SDS011;61429;52.086;5.240;2022-08-21T07:16:19;10.7;;;6.1;;
50651;SDS011;61429;52.086;5.240;2022-08-21T07:17:57;12.0;;;5.8;;
50651;SDS011;61429;52.086;5.240;2022-08-21T07:21:10;10.1;;;6.0;;
50651;SDS011;61429;52.086;5.240;2022-08-21T07:22:47;10.8;;;6.3;;
50651;SDS011;61429;52.086;5.240;2022-08-21T07:24:23;10.0;;;6.5;;
50651;SDS011;61429;52.086;5.240;2022-08-21T07:27:37;10.7;;;5.9;;
50651;SDS011;61429;52.086;5.240;2022-08-21T07:29:13;11.1;;;6.0;;
50651;SDS011;61429;52.086;5.240;2022-08-21T07:30:50;11.3;;;5.9;;
50651;SDS011;61429;52.086;5.240;2022-08-21T07:32:29;12.1;;;6.2;;
50651;SDS011;61429;52.086;5.240;2022-08-21T07:35:44;10.21;;;6.5;;
50651;SDS011;61429;52.086;5.240;2022-08-21T07:37:21;14.3;;;6.2;;
50651;SDS011;61429;52.086;5.240;2022-08-21T07:38:58;11.6;;;6.3;;
50651;SDS011;61429;52.086;5.240;2022-08-21T07:42:11;10.9;;;5.6;;
50651;SDS011;61429;52.086;5.240;2022-08-21T07:43:47;9.9;;;5.7;;
50651;SDS011;61429;52.086;5.240;2022-08-21T07:45:25;9.71;;;5.6;;
50651;SDS011;61429;52.086;5.240;2022-08-21T07:47:03;11.1;;;5.8;;
50651;SDS011;61429;52.086;5.240;2022-08-21T07:50:17;10.4;;;5.9;;
50651;SDS011;61429;52.086;5.240;2022-08-21T07:51:54;11.5;;;5.7;;
50651;SDS011;61429;52.086;5.240;2022-08-21T07:53:31;11.4;;;6.1;;
50651;SDS011;61429;52.086;5.240;2022-08-21T07:56:47;12.7;;;6.6;;
50651;SDS011;61429;52.086;5.240;2022-08-21T07:58:23;10.9;;;6.0;;
50651;SDS011;61429;52.086;5.240;2022-08-21T08:00:00;12.0;;;5.9;;
50651;SDS011;61429;52.086;5.240;2022-08-21T08:03:13;11.0;;;6.1;;
50651;SDS011;61429;52.086;5.240;2022-08-21T08:04:50;10.7;;;6.1;;
50651;SDS011;61429;52.086;5.240;2022-08-21T08:06:27;11.3;;;6.2;;
50651;SDS011;61429;52.086;5.240;2022-08-21T08:08:04;13.1;;;6.1;;
50651;SDS011;61429;52.086;5.240;2022-08-21T08:11:17;10.3;;;5.7;;
50651;SDS011;61429;52.086;5.240;2022-08-21T08:12:55;10.6;;;5.6;;
50651;SDS011;61429;52.086;5.240;2022-08-21T08:14:32;10.3;;;5.4;;
50651;SDS011;61429;52.086;5.240;2022-08-21T08:17:46;10.6;;;5.9;;
50651;SDS011;61429;52.086;5.240;2022-08-21T08:19:24;11.2;;;5.9;;
50651;SDS011;61429;52.086;5.240;2022-08-21T08:21:01;12.8;;;6.0;;
50651;SDS011;61429;52.086;5.240;2022-08-21T08:22:39;11.6;;;5.8;;
50651;SDS011;61429;52.086;5.240;2022-08-21T08:25:52;14.0;;;6.3;;
50651;SDS011;61429;52.086;5.240;2022-08-21T08:27:30;11.2;;;5.5;;
50651;SDS011;61429;52.086;5.240;2022-08-21T08:29:08;10.6;;;6.0;;
50651;SDS011;61429;52.086;5.240;2022-08-21T08:32:21;11.7;;;5.6;;
50651;SDS011;61429;52.086;5.240;2022-08-21T08:33:59;9.71;;;5.3;;
50651;SDS011;61429;52.086;5.240;2022-08-21T08:35:36;10.0;;;5.6;;
50651;SDS011;61429;52.086;5.240;2022-08-21T08:38:49;10.4;;;5.4;;
50651;SDS011;61429;52.086;5.240;2022-08-21T08:40:30;10.4;;;5.4;;
50651;SDS011;61429;52.086;5.240;2022-08-21T08:42:22;11.0;;;5.2;;
50651;SDS011;61429;52.086;5.240;2022-08-21T08:44:07;12.1;;;5.7;;
50651;SDS011;61429;52.086;5.240;2022-08-21T08:45:47;10.8;;;5.3;;
50651;SDS011;61429;52.086;5.240;2022-08-21T08:49:07;13.6;;;5.4;;
50651;SDS011;61429;52.086;5.240;2022-08-21T08:50:50;11.2;;;5.2;;
50651;SDS011;61429;52.086;5.240;2022-08-21T08:52:33;10.7;;;5.4;;
50651;SDS011;61429;52.086;5.240;2022-08-21T08:54:15;9.81;;;4.61;;
50651;SDS011;61429;52.086;5.240;2022-08-21T08:57:37;11.1;;;4.91;;
50651;SDS011;61429;52.086;5.240;2022-08-21T08:59:17;10.5;;;4.8;;
50651;SDS011;61429;52.086;5.240;2022-08-21T09:01:05;11.0;;;5.3;;
50651;SDS011;61429;52.086;5.240;2022-08-21T09:02:52;10.8;;;4.91;;
50651;SDS011;61429;52.086;5.240;2022-08-21T09:04:31;12.5;;;5.2;;
50651;SDS011;61429;52.086;5.240;2022-08-21T09:08:13;10.21;;;4.41;;
50651;SDS011;61429;52.086;5.240;2022-08-21T09:10:12;12.6;;;5.0;;
50651;SDS011;61429;52.086;5.240;2022-08-21T09:11:56;9.81;;;4.61;;
50651;SDS011;61429;52.086;5.240;2022-08-21T09:13:43;11.4;;;4.8;;
50651;SDS011;61429;52.086;5.240;2022-08-21T09:15:29;9.21;;;4.1;;
50651;SDS011;61429;52.086;5.240;2022-08-21T09:17:15;10.9;;;4.8;;
50651;SDS011;61429;52.086;5.240;2022-08-21T09:19:18;9.0;;;4.0;;
50651;SDS011;61429;52.086;5.240;2022-08-21T09:21:15;11.4;;;5.0;;
50651;SDS011;61429;52.086;5.240;2022-08-21T09:24:59;9.6;;;4.2;;
50651;SDS011;61429;52.086;5.240;2022-08-21T09:26:47;11.2;;;4.0;;
50651;SDS011;61429;52.086;5.240;2022-08-21T09:28:33;11.2;;;4.0;;
50651;SDS011;61429;52.086;5.240;2022-08-21T09:30:12;10.1;;;3.9;;
50651;SDS011;61429;52.086;5.240;2022-08-21T09:31:49;9.1;;;3.9;;
50651;SDS011;61429;52.086;5.240;2022-08-21T09:35:06;10.1;;;4.1;;
50651;SDS011;61429;52.086;5.240;2022-08-21T09:36:47;9.81;;;3.7;;
50651;SDS011;61429;52.086;5.240;2022-08-21T09:38:27;8.5;;;3.9;;
50651;SDS011;61429;52.086;5.240;2022-08-21T09:40:15;8.71;;;4.3;;
50651;SDS011;61429;52.086;5.240;2022-08-21T09:43:51;10.4;;;4.0;;
50651;SDS011;61429;52.086;5.240;2022-08-21T09:45:30;10.4;;;3.9;;
50651;SDS011;61429;52.086;5.240;2022-08-21T09:47:08;10.4;;;3.6;;
50651;SDS011;61429;52.086;5.240;2022-08-21T09:48:46;8.71;;;3.3;;
50651;SDS011;61429;52.086;5.240;2022-08-21T09:52:06;11.8;;;3.7;;
50651;SDS011;61429;52.086;5.240;2022-08-21T09:53:56;8.81;;;3.6;;
50651;SDS011;61429;52.086;5.240;2022-08-21T09:58:45;8.4;;;3.3;;
50651;SDS011;61429;52.086;5.240;2022-08-21T10:00:26;9.6;;;3.4;;
50651;SDS011;61429;52.086;5.240;2022-08-21T10:02:18;10.5;;;4.5;;
50651;SDS011;61429;52.086;5.240;2022-08-21T10:04:03;9.71;;;4.1;;
50651;SDS011;61429;52.086;5.240;2022-08-21T10:05:51;9.71;;;3.7;;
50651;SDS011;61429;52.086;5.240;2022-08-21T10:07:31;9.1;;;3.3;;
50651;SDS011;61429;52.086;5.240;2022-08-21T10:10:55;7.7;;;3.2;;
50651;SDS011;61429;52.086;5.240;2022-08-21T10:12:42;7.5;;;3.3;;
50651;SDS011;61429;52.086;5.240;2022-08-21T10:14:35;8.9;;;3.0;;
50651;SDS011;61429;52.086;5.240;2022-08-21T10:16:36;9.0;;;3.1;;
50651;SDS011;61429;52.086;5.240;2022-08-21T10:18:30;10.3;;;3.4;;
50651;SDS011;61429;52.086;5.240;2022-08-21T10:20:17;7.2;;;3.2;;
50651;SDS011;61429;52.086;5.240;2022-08-21T10:22:00;9.5;;;3.2;;
50651;SDS011;61429;52.086;5.240;2022-08-21T10:25:37;8.6;;;3.2;;
50651;SDS011;61429;52.086;5.240;2022-08-21T10:27:27;7.9;;;2.8;;
50651;SDS011;61429;52.086;5.240;2022-08-21T10:29:19;9.0;;;2.9;;
50651;SDS011;61429;52.086;5.240;2022-08-21T10:31:18;7.5;;;3.0;;
50651;SDS011;61429;52.086;5.240;2022-08-21T10:33:12;8.31;;;3.2;;
50651;SDS011;61429;52.086;5.240;2022-08-21T10:35:00;7.1;;;2.9;;
50651;SDS011;61429;52.086;5.240;2022-08-21T10:36:48;7.0;;;3.2;;
50651;SDS011;61429;52.086;5.240;2022-08-21T10:38:53;8.6;;;3.0;;
50651;SDS011;61429;52.086;5.240;2022-08-21T10:42:24;5.8;;;2.9;;
50651;SDS011;61429;52.086;5.240;2022-08-21T10:44:13;5.11;;;2.5;;
50651;SDS011;61429;52.086;5.240;2022-08-21T10:46:00;9.71;;;3.0;;
50651;SDS011;61429;52.086;5.240;2022-08-21T10:47:54;8.0;;;3.1;;
50651;SDS011;61429;52.086;5.240;2022-08-21T10:49:39;6.2;;;2.7;;
50651;SDS011;61429;52.086;5.240;2022-08-21T10:51:23;6.7;;;2.8;;
50651;SDS011;61429;52.086;5.240;2022-08-21T10:55:07;5.11;;;2.31;;
50651;SDS011;61429;52.086;5.240;2022-08-21T10:56:49;6.0;;;2.5;;
50651;SDS011;61429;52.086;5.240;2022-08-21T10:58:33;7.8;;;2.8;;
50651;SDS011;61429;52.086;5.240;2022-08-21T11:00:18;9.0;;;2.7;;
50651;SDS011;61429;52.086;5.240;2022-08-21T11:01:58;8.0;;;2.6;;
50651;SDS011;61429;52.086;5.240;2022-08-21T11:03:44;5.11;;;2.8;;
50651;SDS011;61429;52.086;5.240;2022-08-21T11:07:11;6.1;;;2.9;;
50651;SDS011;61429;52.086;5.240;2022-08-21T11:08:58;6.7;;;2.7;;
50651;SDS011;61429;52.086;5.240;2022-08-21T11:10:47;5.0;;;2.4;;
50651;SDS011;61429;52.086;5.240;2022-08-21T11:12:31;5.6;;;2.6;;
50651;SDS011;61429;52.086;5.240;2022-08-21T11:14:20;7.2;;;2.5;;
50651;SDS011;61429;52.086;5.240;2022-08-21T11:18:00;5.11;;;2.5;;
50651;SDS011;61429;52.086;5.240;2022-08-21T11:19:58;7.8;;;2.8;;
50651;SDS011;61429;52.086;5.240;2022-08-21T11:21:46;6.7;;;2.4;;
50651;SDS011;61429;52.086;5.240;2022-08-21T11:23:33;4.61;;;2.31;;
50651;SDS011;61429;52.086;5.240;2022-08-21T11:25:19;5.8;;;2.5;;
50651;SDS011;61429;52.086;5.240;2022-08-21T11:27:04;4.91;;;2.4;;
50651;SDS011;61429;52.086;5.240;2022-08-21T11:28:58;6.0;;;2.4;;
50651;SDS011;61429;52.086;5.240;2022-08-21T11:32:47;6.2;;;2.31;;
50651;SDS011;61429;52.086;5.240;2022-08-21T11:34:46;5.5;;;2.5;;
50651;SDS011;61429;52.086;5.240;2022-08-21T11:36:33;6.3;;;2.7;;
50651;SDS011;61429;52.086;5.240;2022-08-21T11:38:21;5.6;;;2.4;;
50651;SDS011;61429;52.086;5.240;2022-08-21T11:40:12;7.1;;;3.0;;
50651;SDS011;61429;52.086;5.240;2022-08-21T11:42:01;5.8;;;2.4;;
50651;SDS011;61429;52.086;5.240;2022-08-21T11:43:50;6.9;;;2.9;;
50651;SDS011;61429;52.086;5.240;2022-08-21T11:45:37;5.7;;;2.8;;
50651;SDS011;61429;52.086;5.240;2022-08-21T11:49:30;5.0;;;2.6;;
50651;SDS011;61429;52.086;5.240;2022-08-21T11:51:25;5.5;;;2.6;;
50651;SDS011;61429;52.086;5.240;2022-08-21T11:53:17;5.7;;;2.6;;
50651;SDS011;61429;52.086;5.240;2022-08-21T11:55:07;6.4;;;2.8;;
50651;SDS011;61429;52.086;5.240;2022-08-21T11:56:53;5.9;;;2.8;;
50651;SDS011;61429;52.086;5.240;2022-08-21T11:58:35;7.1;;;3.0;;
50651;SDS011;61429;52.086;5.240;2022-08-21T12:00:16;6.8;;;2.6;;
50651;SDS011;61429;52.086;5.240;2022-08-21T12:03:38;5.5;;;2.6;;
50651;SDS011;61429;52.086;5.240;2022-08-21T12:05:27;6.0;;;2.7;;
50651;SDS011;61429;52.086;5.240;2022-08-21T12:07:11;7.4;;;2.8;;
50651;SDS011;61429;52.086;5.240;2022-08-21T12:08:56;6.3;;;2.6;;
50651;SDS011;61429;52.086;5.240;2022-08-21T12:12:23;6.0;;;2.6;;
50651;SDS011;61429;52.086;5.240;2022-08-21T12:14:12;7.3;;;3.0;;
50651;SDS011;61429;52.086;5.240;2022-08-21T12:15:52;7.7;;;3.0;;
50651;SDS011;61429;52.086;5.240;2022-08-21T12:17:34;7.4;;;2.8;;
50651;SDS011;61429;52.086;5.240;2022-08-21T12:19:28;7.1;;;2.7;;
50651;SDS011;61429;52.086;5.240;2022-08-21T12:21:23;4.7;;;2.4;;
50651;SDS011;61429;52.086;5.240;2022-08-21T12:25:05;7.0;;;2.6;;
50651;SDS011;61429;52.086;5.240;2022-08-21T12:26:49;5.11;;;2.5;;
50651;SDS011;61429;52.086;5.240;2022-08-21T12:28:28;6.2;;;2.8;;
50651;SDS011;61429;52.086;5.240;2022-08-21T12:30:32;8.1;;;3.0;;
50651;SDS011;61429;52.086;5.240;2022-08-21T12:32:20;6.7;;;2.9;;
50651;SDS011;61429;52.086;5.240;2022-08-21T12:34:02;6.7;;;2.9;;
50651;SDS011;61429;52.086;5.240;2022-08-21T12:35:46;7.0;;;2.5;;
50651;SDS011;61429;52.086;5.240;2022-08-21T12:39:21;5.9;;;2.6;;
50651;SDS011;61429;52.086;5.240;2022-08-21T12:41:05;5.9;;;2.6;;
50651;SDS011;61429;52.086;5.240;2022-08-21T12:42:50;6.2;;;2.4;;
50651;SDS011;61429;52.086;5.240;2022-08-21T12:44:33;4.91;;;2.4;;
50651;SDS011;61429;52.086;5.240;2022-08-21T12:46:15;6.3;;;2.4;;
50651;SDS011;61429;52.086;5.240;2022-08-21T12:49:37;5.11;;;2.31;;
50651;SDS011;61429;52.086;5.240;2022-08-21T12:51:28;5.11;;;2.1;;
50651;SDS011;61429;52.086;5.240;2022-08-21T12:53:12;5.5;;;2.5;;
50651;SDS011;61429;52.086;5.240;2022-08-21T12:55:00;7.2;;;2.31;;
50651;SDS011;61429;52.086;5.240;2022-08-21T12:58:17;5.5;;;2.6;;
50651;SDS011;61429;52.086;5.240;2022-08-21T12:59:55;5.0;;;2.0;;